Time;durP1;ratioP1;P1;durP2;ratioP2;P2;SDS_P1;SDS_P2;PMS_P1;PMS_P2;Temp;Humidity;BMP_temperature;BMP_pressure;BME280_temperature;BME280_humidity;BME280_pressure;Samples;Min_cycle;Max_cycle;Signal;HPM_P1;HPM_P2
2022/02/04 00:06:24;;;;;;;159.32;131.48;;;19.10;45.20;;;;;;4737683;55;21160;-33
2022/02/04 00:28:55;;;;;;;164.02;131.68;;;19.10;45.10;;;;;;4737620;59;21034;-31
2022/02/04 00:34:10;;;;;;;161.62;130.12;;;19.10;45.10;;;;;;4751671;55;21568;-33
2022/02/04 00:39:18;;;;;;;166.07;132.68;;;19.10;45.00;;;;;;4756589;55;21496;-32
2022/02/04 00:44:23;;;;;;;159.02;128.05;;;19.10;45.10;;;;;;4740604;55;21456;-34
2022/02/04 00:49:44;;;;;;;155.15;126.45;;;19.10;45.00;;;;;;4772196;55;21038;-36
2022/02/04 00:55:19;;;;;;;165.57;130.43;;;19.10;44.90;;;;;;4758886;55;21485;-33
2022/02/04 01:26:57;;;;;;;152.45;123.47;;;19.00;44.60;;;;;;4746526;55;21074;-34
2022/02/04 01:31:58;;;;;;;158.30;127.78;;;19.00;45.30;;;;;;4738123;55;21041;-32
2022/02/04 01:36:59;;;;;;;154.98;122.53;;;19.00;44.60;;;;;;4738251;59;21014;-32
2022/02/04 01:42:00;;;;;;;161.60;126.47;;;19.00;44.60;;;;;;4740073;55;21092;-33
2022/02/04 01:47:01;;;;;;;158.70;127.70;;;19.00;44.60;;;;;;4756348;55;21496;-34
2022/02/04 01:52:03;;;;;;;157.43;123.13;;;19.00;44.40;;;;;;4736642;59;21587;-33
2022/02/04 01:57:05;;;;;;;154.05;122.68;;;19.00;45.10;;;;;;4762229;55;21109;-33
2022/02/04 02:02:07;;;;;;;159.12;126.72;;;19.00;44.50;;;;;;4753501;55;21047;-33
2022/02/04 02:07:15;;;;;;;153.43;121.93;;;19.00;45.00;;;;;;4743583;55;21005;-33
2022/02/04 02:12:18;;;;;;;153.20;121.72;;;19.00;44.40;;;;;;4737119;59;21525;-35
2022/02/04 03:03:11;;;;;;;146.93;115.80;;;19.00;44.10;;;;;;4803543;55;21030;-35
2022/02/04 03:08:12;;;;;;;145.82;115.65;;;19.00;44.10;;;;;;4738457;59;21590;-36
2022/02/04 03:13:13;;;;;;;143.00;113.03;;;19.00;44.10;;;;;;4759712;55;21018;-36
2022/02/04 03:18:23;;;;;;;138.52;109.93;;;19.00;44.70;;;;;;4738179;55;21488;-33
2022/02/04 03:23:25;;;;;;;137.93;110.82;;;19.00;44.00;;;;;;4817695;55;21465;-33
2022/02/04 03:28:29;;;;;;;143.73;113.43;;;19.00;43.90;;;;;;4752934;55;22197;-35
2022/02/04 03:33:32;;;;;;;141.95;113.32;;;19.00;44.00;;;;;;4771252;55;21469;-35
2022/02/04 03:38:32;;;;;;;134.95;106.35;;;19.00;44.00;;;;;;4737759;59;21442;-35
2022/02/04 03:43:34;;;;;;;132.43;106.47;;;19.00;43.90;;;;;;4750685;55;21006;-33
2022/02/04 03:48:35;;;;;;;133.48;106.85;;;19.00;43.90;;;;;;4746395;55;21105;-35
2022/02/04 03:53:36;;;;;;;132.57;106.82;;;19.00;43.80;;;;;;4739332;55;22396;-31
2022/02/04 03:58:37;;;;;;;131.73;106.72;;;19.00;43.80;;;;;;4830034;55;20970;-32
2022/02/04 04:03:40;;;;;;;128.48;104.70;;;19.00;43.70;;;;;;4794715;55;21520;-36
2022/02/04 04:08:40;;;;;;;130.45;105.53;;;19.00;43.80;;;;;;4747330;55;21536;-35
2022/02/04 04:13:42;;;;;;;128.75;102.87;;;19.00;43.70;;;;;;4736904;59;21037;-32
2022/02/04 04:18:43;;;;;;;129.63;104.18;;;19.00;44.40;;;;;;4747155;55;21477;-31
2022/02/04 04:23:44;;;;;;;127.85;101.68;;;19.00;43.80;;;;;;4744442;55;21070;-36
2022/02/04 04:28:45;;;;;;;124.68;101.38;;;19.00;43.80;;;;;;4738254;59;21495;-37
2022/02/04 04:33:46;;;;;;;125.35;99.53;;;19.00;43.70;;;;;;4749259;55;21535;-32
2022/02/04 04:38:54;;;;;;;120.28;97.50;;;19.00;43.70;;;;;;4773731;55;21037;-35
2022/02/04 04:45:03;;;;;;;;;;;19.00;43.80;;;;;;4742159;55;21042;-31
2022/02/04 05:32:40;;;;;;;111.25;90.10;;;18.90;44.00;;;;;;4736708;55;21634;-35
2022/02/04 05:37:45;;;;;;;107.87;88.00;;;19.00;44.10;;;;;;4785949;55;21093;-35
2022/02/04 05:43:14;;;;;;;110.35;89.45;;;19.00;44.20;;;;;;4763471;55;21480;-34
2022/02/04 05:48:15;;;;;;;111.72;89.25;;;19.00;44.30;;;;;;4744293;55;21505;-32
2022/02/04 05:53:20;;;;;;;111.28;90.15;;;19.00;44.40;;;;;;4748047;55;21455;-31
2022/02/04 05:58:37;;;;;;;108.25;87.00;;;19.00;44.40;;;;;;4746482;55;21560;-35
2022/02/04 06:04:10;;;;;;;107.70;89.03;;;19.00;44.40;;;;;;4748505;55;21116;-34
2022/02/04 06:26:13;;;;;;;105.60;84.78;;;19.00;44.50;;;;;;4738003;55;21627;-34
2022/02/04 06:31:14;;;;;;;102.57;84.68;;;19.00;44.40;;;;;;4738729;55;21029;-32
2022/02/04 06:36:15;;;;;;;104.72;86.03;;;19.00;44.40;;;;;;4754300;55;21174;-34
2022/02/04 06:41:16;;;;;;;100.22;82.25;;;19.00;44.40;;;;;;4788176;55;21924;-27
2022/02/04 06:46:16;;;;;;;100.85;81.05;;;19.00;44.30;;;;;;4756638;55;20991;-36
2022/02/04 06:51:17;;;;;;;99.15;80.70;;;19.00;44.30;;;;;;4737078;59;21057;-33
2022/02/04 06:56:18;;;;;;;97.65;79.62;;;19.00;44.30;;;;;;4786372;55;20994;-34
2022/02/04 07:01:19;;;;;;;101.20;84.18;;;18.90;44.30;;;;;;4745126;55;21002;-34
2022/02/04 07:06:20;;;;;;;103.50;82.65;;;19.00;44.30;;;;;;4760015;55;21547;-35
2022/02/04 07:17:05;;;;;;;104.75;81.25;;;19.00;44.30;;;;;;4762953;55;21121;-34
2022/02/04 07:22:06;;;;;;;96.03;76.57;;;19.00;44.20;;;;;;4738116;55;21483;-37
2022/02/04 07:27:07;;;;;;;104.12;82.22;;;19.00;44.40;;;;;;4738250;56;21014;-32
2022/02/04 07:32:18;;;;;;;101.80;84.28;;;19.00;44.20;;;;;;4763552;55;21448;-34
2022/02/04 07:42:45;;;;;;;101.20;81.57;;;19.00;44.20;;;;;;4738076;55;21034;-29
2022/02/04 07:47:58;;;;;;;103.68;83.68;;;19.00;44.30;;;;;;4761748;55;21002;-32
2022/02/04 07:53:03;;;;;;;98.85;82.03;;;19.00;44.20;;;;;;4743571;55;21523;-36
2022/02/04 07:58:08;;;;;;;101.25;81.82;;;19.00;44.10;;;;;;4742665;55;21124;-30
2022/02/04 08:15:13;;;;;;;106.30;83.75;;;19.00;44.10;;;;;;4786129;55;21101;-31
2022/02/04 08:20:32;;;;;;;112.00;87.07;;;19.00;44.20;;;;;;4754885;55;21034;-38
2022/02/04 08:36:28;;;;;;;120.30;91.72;;;19.00;44.10;;;;;;4788178;55;21034;-35
2022/02/04 08:47:10;;;;;;;122.75;92.43;;;19.00;44.10;;;;;;4737650;55;20080;-32
2022/02/04 08:58:41;;;;;;;126.62;94.07;;;19.00;44.10;;;;;;4764503;55;21046;-36
2022/02/04 09:03:51;;;;;;;122.45;93.93;;;19.00;44.10;;;;;;4740944;55;22281;-37
2022/02/04 09:08:56;;;;;;;126.00;96.87;;;19.00;44.10;;;;;;4743820;55;21607;-31
2022/02/04 09:19:19;;;;;;;130.32;96.28;;;19.00;44.10;;;;;;4737369;59;21022;-36
2022/02/04 09:24:22;;;;;;;126.57;96.60;;;19.10;44.10;;;;;;4746478;55;22158;-36
2022/02/04 09:29:22;;;;;;;126.93;99.80;;;19.10;44.10;;;;;;4800267;55;21496;-30
2022/02/04 09:34:23;;;;;;;130.27;95.55;;;19.00;44.10;;;;;;4786357;55;21041;-38
2022/02/04 09:39:25;;;;;;;131.12;97.82;;;19.00;44.20;;;;;;4779378;55;21109;-36
2022/02/04 09:44:26;;;;;;;130.98;99.32;;;19.10;44.20;;;;;;4737843;59;21484;-32
2022/02/04 09:49:31;;;;;;;125.60;98.25;;;19.10;44.20;;;;;;4757617;55;21108;-33
2022/02/04 10:18:14;;;;;;;127.70;100.65;;;19.10;44.30;;;;;;4739174;55;21026;-42
2022/02/04 10:23:15;;;;;;;129.87;103.03;;;19.10;44.40;;;;;;4747275;55;21554;-35
2022/02/04 10:28:28;;;;;;;134.07;105.00;;;19.10;44.40;;;;;;4778102;55;21066;-31
2022/02/04 10:33:29;;;;;;;135.82;105.10;;;19.10;44.40;;;;;;4753202;55;21109;-31
2022/02/04 10:38:43;;;;;;;132.98;103.47;;;19.10;44.40;;;;;;4760847;55;21531;-34
2022/02/04 10:44:22;;;;;;;133.05;102.93;;;19.10;44.40;;;;;;4771229;55;21674;-32
2022/02/04 10:49:59;;;;;;;128.60;100.30;;;19.20;44.80;;;;;;4755997;55;21528;-36
2022/02/04 10:55:39;;;;;;;125.60;100.25;;;19.30;45.30;;;;;;4757046;55;21536;-34
2022/02/04 11:00:57;;;;;;;138.57;106.75;;;19.30;45.60;;;;;;4755043;55;21588;-34
2022/02/04 11:07:47;;;;;;;202.00;109.47;;;19.40;45.70;;;;;;4767995;55;21494;-37
2022/02/04 11:35:33;;;;;;;143.00;110.53;;;19.40;46.20;;;;;;4737474;55;21099;-36
2022/02/04 11:52:51;;;;;;;146.27;110.78;;;19.40;46.20;;;;;;4737961;55;21527;-35
2022/02/04 11:57:56;;;;;;;142.13;110.47;;;19.40;46.20;;;;;;4763971;55;21528;-32
2022/02/04 12:02:58;;;;;;;140.02;107.28;;;19.40;46.20;;;;;;4759374;55;21484;-33
2022/02/04 12:08:32;;;;;;;136.52;109.95;;;19.30;46.20;;;;;;4766461;55;21013;-33
2022/02/04 12:14:07;;;;;;;140.23;111.05;;;19.30;46.20;;;;;;4738426;55;21564;-31
2022/02/04 12:19:10;;;;;;;138.73;108.87;;;19.30;46.20;;;;;;4763838;55;21499;-35
2022/02/04 12:24:30;;;;;;;134.27;107.07;;;19.30;46.20;;;;;;4737908;59;21133;-37
2022/02/04 12:29:31;;;;;;;136.23;104.82;;;19.30;46.20;;;;;;4747369;55;21086;-38
2022/02/04 12:34:34;;;;;;;137.62;109.25;;;19.30;46.20;;;;;;4789500;55;21484;-35
2022/02/04 12:39:35;;;;;;;138.85;110.75;;;19.30;46.20;;;;;;4778913;55;21500;-31
2022/02/04 12:44:38;;;;;;;134.32;104.15;;;19.30;46.20;;;;;;4738212;57;21051;-30
2022/02/04 12:49:54;;;;;;;134.87;107.82;;;19.20;46.20;;;;;;4808698;55;21021;-38
2022/02/04 12:55:07;;;;;;;136.25;107.78;;;19.20;46.20;;;;;;4810161;55;21575;-34
2022/02/04 13:00:33;;;;;;;140.50;108.45;;;19.20;46.20;;;;;;4742073;55;21615;-33
2022/02/04 13:11:12;;;;;;;135.25;108.07;;;19.20;46.20;;;;;;4786572;55;21038;-35
2022/02/04 13:16:25;;;;;;;135.35;108.63;;;19.20;46.20;;;;;;4744385;55;21572;-35
2022/02/04 13:21:27;;;;;;;135.70;107.18;;;19.20;46.20;;;;;;4771434;55;21018;-30
2022/02/04 13:26:29;;;;;;;134.25;107.15;;;19.20;46.20;;;;;;4799203;55;21090;-34
2022/02/04 13:31:35;;;;;;;129.80;106.35;;;19.20;46.20;;;;;;4737795;59;21515;-33
2022/02/04 13:36:42;;;;;;;130.80;105.87;;;19.20;46.20;;;;;;4739519;55;21507;-36
2022/02/04 13:42:04;;;;;;;133.07;106.78;;;19.20;46.20;;;;;;4781601;55;22077;-30
2022/02/04 13:52:57;;;;;;;131.40;107.32;;;19.30;46.20;;;;;;4750269;55;21022;-32
2022/02/04 14:04:02;;;;;;;135.60;107.90;;;19.30;46.20;;;;;;4794373;55;20994;-36
2022/02/04 14:09:17;;;;;;;126.82;103.65;;;19.20;46.20;;;;;;4742862;55;21592;-36
2022/02/04 14:14:25;;;;;;;123.20;102.43;;;19.30;46.20;;;;;;4832402;55;21527;-32
2022/02/04 14:19:28;;;;;;;;;;;19.20;46.20;;;;;;4751714;55;22586;-31
2022/02/04 14:24:29;;;;;;;128.98;105.57;;;19.30;46.80;;;;;;4784272;55;20299;-32
2022/02/04 14:29:44;;;;;;;128.12;104.50;;;19.20;46.20;;;;;;4737523;59;21547;-34
2022/02/04 14:54:33;;;;;;;126.45;104.78;;;19.20;46.20;;;;;;4762746;55;21666;-31
2022/02/04 15:00:41;;;;;;;129.45;105.28;;;19.20;46.20;;;;;;4743241;55;21559;-33
2022/02/04 15:05:46;;;;;;;128.85;105.93;;;19.30;46.20;;;;;;4740987;55;22207;-37
2022/02/04 15:10:48;;;;;;;127.53;106.60;;;19.30;46.20;;;;;;4749237;55;21483;-32
2022/02/04 15:15:49;;;;;;;123.75;103.68;;;19.20;46.10;;;;;;4749215;55;21568;-36
2022/02/04 15:20:59;;;;;;;123.97;103.47;;;19.20;46.10;;;;;;4744870;55;21074;-29
2022/02/04 15:26:00;;;;;;;130.55;105.85;;;19.20;46.10;;;;;;4803113;55;21638;-29
2022/02/04 15:31:02;;;;;;;130.87;107.12;;;19.20;46.10;;;;;;4805206;55;21528;-31
2022/02/04 15:36:04;;;;;;;126.03;104.87;;;19.20;46.10;;;;;;4773789;55;21496;-34
2022/02/04 15:41:07;;;;;;;128.68;106.32;;;19.20;46.10;;;;;;4737773;59;21073;-31
2022/02/04 15:54:02;;;;;;;125.90;104.30;;;19.20;46.10;;;;;;4780908;55;21046;-34
2022/02/04 15:59:29;;;;;;;129.52;106.05;;;19.20;46.10;;;;;;4738556;55;21567;-30
